sensor_id;sensor_type;location;lat;lon;timestamp;temperature;humidity
7942;HTU21D;4016;50.758;7.150;2023-05-07T00:02:01;13.09;118.99
7942;HTU21D;4016;50.758;7.150;2023-05-07T00:07:04;13.14;118.99
7942;HTU21D;4016;50.758;7.150;2023-05-07T00:12:04;13.08;118.99
7942;HTU21D;4016;50.758;7.150;2023-05-07T00:17:05;13.06;118.99
7942;HTU21D;4016;50.758;7.150;2023-05-07T00:22:05;13.03;118.99
7942;HTU21D;4016;50.758;7.150;2023-05-07T00:27:05;13.00;118.99
7942;HTU21D;4016;50.758;7.150;2023-05-07T00:32:06;13.01;118.99
7942;HTU21D;4016;50.758;7.150;2023-05-07T00:37:06;13.02;118.99
7942;HTU21D;4016;50.758;7.150;2023-05-07T00:42:10;13.04;118.99
7942;HTU21D;4016;50.758;7.150;2023-05-07T00:47:11;13.05;118.99
7942;HTU21D;4016;50.758;7.150;2023-05-07T00:52:14;13.06;118.99
7942;HTU21D;4016;50.758;7.150;2023-05-07T00:57:15;13.07;118.99
7942;HTU21D;4016;50.758;7.150;2023-05-07T01:02:16;13.09;118.99
7942;HTU21D;4016;50.758;7.150;2023-05-07T01:07:17;13.09;118.99
7942;HTU21D;4016;50.758;7.150;2023-05-07T01:12:17;13.14;118.99
7942;HTU21D;4016;50.758;7.150;2023-05-07T01:17:18;13.14;118.99
7942;HTU21D;4016;50.758;7.150;2023-05-07T01:22:30;13.14;118.99
7942;HTU21D;4016;50.758;7.150;2023-05-07T01:27:32;13.16;118.99
7942;HTU21D;4016;50.758;7.150;2023-05-07T01:37:40;13.15;118.99
7942;HTU21D;4016;50.758;7.150;2023-05-07T01:42:43;13.16;118.99
7942;HTU21D;4016;50.758;7.150;2023-05-07T01:47:44;13.16;118.99
7942;HTU21D;4016;50.758;7.150;2023-05-07T01:52:44;13.12;118.99
7942;HTU21D;4016;50.758;7.150;2023-05-07T01:57:45;13.12;118.99
7942;HTU21D;4016;50.758;7.150;2023-05-07T02:02:45;13.14;118.99
7942;HTU21D;4016;50.758;7.150;2023-05-07T02:07:46;13.15;118.99
7942;HTU21D;4016;50.758;7.150;2023-05-07T02:12:46;13.16;118.99
7942;HTU21D;4016;50.758;7.150;2023-05-07T02:18:07;13.17;118.99
7942;HTU21D;4016;50.758;7.150;2023-05-07T02:23:08;13.14;118.99
7942;HTU21D;4016;50.758;7.150;2023-05-07T02:28:08;13.18;118.99
7942;HTU21D;4016;50.758;7.150;2023-05-07T02:33:09;13.18;118.99
7942;HTU21D;4016;50.758;7.150;2023-05-07T02:38:09;13.14;118.99
7942;HTU21D;4016;50.758;7.150;2023-05-07T02:43:10;13.22;118.99
7942;HTU21D;4016;50.758;7.150;2023-05-07T02:48:11;13.16;118.99
7942;HTU21D;4016;50.758;7.150;2023-05-07T02:53:11;13.23;118.99
7942;HTU21D;4016;50.758;7.150;2023-05-07T02:58:12;13.14;118.99
7942;HTU21D;4016;50.758;7.150;2023-05-07T03:03:12;13.07;118.99
7942;HTU21D;4016;50.758;7.150;2023-05-07T03:08:12;13.01;118.99
7942;HTU21D;4016;50.758;7.150;2023-05-07T03:13:13;12.97;118.99
7942;HTU21D;4016;50.758;7.150;2023-05-07T03:18:14;12.92;118.99
7942;HTU21D;4016;50.758;7.150;2023-05-07T03:23:14;12.91;118.99
7942;HTU21D;4016;50.758;7.150;2023-05-07T03:28:14;12.88;118.99
7942;HTU21D;4016;50.758;7.150;2023-05-07T03:33:15;12.86;118.99
7942;HTU21D;4016;50.758;7.150;2023-05-07T03:38:15;12.84;118.99
7942;HTU21D;4016;50.758;7.150;2023-05-07T03:43:16;12.81;118.99
7942;HTU21D;4016;50.758;7.150;2023-05-07T03:48:16;12.79;118.99
7942;HTU21D;4016;50.758;7.150;2023-05-07T03:53:16;12.76;118.99
7942;HTU21D;4016;50.758;7.150;2023-05-07T03:58:17;12.76;118.99
7942;HTU21D;4016;50.758;7.150;2023-05-07T04:03:17;12.76;118.99
7942;HTU21D;4016;50.758;7.150;2023-05-07T04:08:17;12.77;118.99
7942;HTU21D;4016;50.758;7.150;2023-05-07T04:13:18;12.77;118.99
7942;HTU21D;4016;50.758;7.150;2023-05-07T04:18:18;12.80;118.99
7942;HTU21D;4016;50.758;7.150;2023-05-07T04:23:19;12.84;118.99
7942;HTU21D;4016;50.758;7.150;2023-05-07T04:28:19;12.85;118.99
7942;HTU21D;4016;50.758;7.150;2023-05-07T04:33:20;12.92;118.99
7942;HTU21D;4016;50.758;7.150;2023-05-07T04:38:21;12.96;118.99
7942;HTU21D;4016;50.758;7.150;2023-05-07T04:43:21;13.01;118.99
7942;HTU21D;4016;50.758;7.150;2023-05-07T04:48:21;13.05;118.99
7942;HTU21D;4016;50.758;7.150;2023-05-07T04:53:22;13.11;118.99
7942;HTU21D;4016;50.758;7.150;2023-05-07T04:58:22;13.26;118.99
7942;HTU21D;4016;50.758;7.150;2023-05-07T05:03:23;13.31;118.99
7942;HTU21D;4016;50.758;7.150;2023-05-07T05:08:24;13.38;118.99
7942;HTU21D;4016;50.758;7.150;2023-05-07T05:13:24;13.49;118.99
7942;HTU21D;4016;50.758;7.150;2023-05-07T05:18:24;13.59;118.99
7942;HTU21D;4016;50.758;7.150;2023-05-07T05:23:25;13.78;118.99
7942;HTU21D;4016;50.758;7.150;2023-05-07T05:28:25;13.94;118.99
7942;HTU21D;4016;50.758;7.150;2023-05-07T05:33:27;14.15;118.99
7942;HTU21D;4016;50.758;7.150;2023-05-07T05:38:27;14.30;118.99
7942;HTU21D;4016;50.758;7.150;2023-05-07T05:43:28;14.47;118.99
7942;HTU21D;4016;50.758;7.150;2023-05-07T05:48:29;14.64;118.99
7942;HTU21D;4016;50.758;7.150;2023-05-07T05:53:29;14.84;118.99
7942;HTU21D;4016;50.758;7.150;2023-05-07T05:58:30;15.00;118.99
7942;HTU21D;4016;50.758;7.150;2023-05-07T06:03:30;15.14;118.99
7942;HTU21D;4016;50.758;7.150;2023-05-07T06:08:32;15.32;118.99
7942;HTU21D;4016;50.758;7.150;2023-05-07T06:13:32;15.61;118.99
7942;HTU21D;4016;50.758;7.150;2023-05-07T06:18:33;15.89;118.99
7942;HTU21D;4016;50.758;7.150;2023-05-07T06:23:33;16.08;118.99
7942;HTU21D;4016;50.758;7.150;2023-05-07T06:28:34;16.29;118.99
7942;HTU21D;4016;50.758;7.150;2023-05-07T06:33:36;16.41;118.99
7942;HTU21D;4016;50.758;7.150;2023-05-07T06:38:36;16.61;118.99
7942;HTU21D;4016;50.758;7.150;2023-05-07T06:43:36;16.69;118.99
7942;HTU21D;4016;50.758;7.150;2023-05-07T06:48:37;16.91;118.99
7942;HTU21D;4016;50.758;7.150;2023-05-07T06:53:37;17.07;118.99
7942;HTU21D;4016;50.758;7.150;2023-05-07T06:58:37;17.23;118.99
7942;HTU21D;4016;50.758;7.150;2023-05-07T07:03:38;17.46;118.99
7942;HTU21D;4016;50.758;7.150;2023-05-07T07:08:38;17.62;117.99
7942;HTU21D;4016;50.758;7.150;2023-05-07T07:13:38;17.79;118.99
7942;HTU21D;4016;50.758;7.150;2023-05-07T07:18:40;17.93;115.43
7942;HTU21D;4016;50.758;7.150;2023-05-07T07:23:40;18.05;116.32
7942;HTU21D;4016;50.758;7.150;2023-05-07T07:28:45;18.11;117.64
7942;HTU21D;4016;50.758;7.150;2023-05-07T07:33:45;18.26;117.32
7942;HTU21D;4016;50.758;7.150;2023-05-07T07:38:45;18.35;116.86
7942;HTU21D;4016;50.758;7.150;2023-05-07T07:43:46;18.37;117.10
7942;HTU21D;4016;50.758;7.150;2023-05-07T07:48:49;18.54;118.10
7942;HTU21D;4016;50.758;7.150;2023-05-07T07:53:49;18.62;113.98
7942;HTU21D;4016;50.758;7.150;2023-05-07T07:58:50;18.67;113.36
7942;HTU21D;4016;50.758;7.150;2023-05-07T08:03:50;18.73;111.98
7942;HTU21D;4016;50.758;7.150;2023-05-07T08:08:51;18.93;111.94
7942;HTU21D;4016;50.758;7.150;2023-05-07T08:13:51;19.14;112.42
7942;HTU21D;4016;50.758;7.150;2023-05-07T08:18:52;19.41;110.46
7942;HTU21D;4016;50.758;7.150;2023-05-07T08:23:52;19.70;103.44
7942;HTU21D;4016;50.758;7.150;2023-05-07T08:28:53;19.74;103.91
7942;HTU21D;4016;50.758;7.150;2023-05-07T08:33:53;20.01;102.76
7942;HTU21D;4016;50.758;7.150;2023-05-07T08:38:54;20.31;103.47
7942;HTU21D;4016;50.758;7.150;2023-05-07T08:43:57;20.61;100.09
7942;HTU21D;4016;50.758;7.150;2023-05-07T08:48:58;20.90;101.85
7942;HTU21D;4016;50.758;7.150;2023-05-07T08:53:59;21.13;96.36
7942;HTU21D;4016;50.758;7.150;2023-05-07T08:59:01;21.31;96.23
7942;HTU21D;4016;50.758;7.150;2023-05-07T09:04:01;21.47;93.20
7942;HTU21D;4016;50.758;7.150;2023-05-07T09:09:02;21.59;93.84
7942;HTU21D;4016;50.758;7.150;2023-05-07T09:14:05;22.01;91.20
7942;HTU21D;4016;50.758;7.150;2023-05-07T09:19:05;22.29;88.77
7942;HTU21D;4016;50.758;7.150;2023-05-07T09:24:06;22.68;88.09
7942;HTU21D;4016;50.758;7.150;2023-05-07T09:29:07;22.87;87.36
7942;HTU21D;4016;50.758;7.150;2023-05-07T09:34:07;23.05;85.67
7942;HTU21D;4016;50.758;7.150;2023-05-07T09:39:08;23.30;85.13
7942;HTU21D;4016;50.758;7.150;2023-05-07T09:44:09;23.31;85.09
7942;HTU21D;4016;50.758;7.150;2023-05-07T09:49:18;23.59;82.75
7942;HTU21D;4016;50.758;7.150;2023-05-07T09:54:20;23.47;79.56
7942;HTU21D;4016;50.758;7.150;2023-05-07T09:59:21;23.92;83.32
7942;HTU21D;4016;50.758;7.150;2023-05-07T10:04:22;24.18;84.29
7942;HTU21D;4016;50.758;7.150;2023-05-07T10:09:23;24.72;76.47
7942;HTU21D;4016;50.758;7.150;2023-05-07T10:14:27;24.97;75.78
7942;HTU21D;4016;50.758;7.150;2023-05-07T10:19:29;24.70;69.63
7942;HTU21D;4016;50.758;7.150;2023-05-07T10:24:32;24.48;70.45
7942;HTU21D;4016;50.758;7.150;2023-05-07T10:34:54;24.78;69.07
7942;HTU21D;4016;50.758;7.150;2023-05-07T10:39:56;24.31;71.85
7942;HTU21D;4016;50.758;7.150;2023-05-07T10:44:57;24.72;75.55
7942;HTU21D;4016;50.758;7.150;2023-05-07T10:50:21;24.78;68.63
7942;HTU21D;4016;50.758;7.150;2023-05-07T10:55:22;24.79;66.30
7942;HTU21D;4016;50.758;7.150;2023-05-07T11:05:29;25.24;62.60
7942;HTU21D;4016;50.758;7.150;2023-05-07T11:10:50;25.71;59.65
7942;HTU21D;4016;50.758;7.150;2023-05-07T11:15:51;26.03;58.82
7942;HTU21D;4016;50.758;7.150;2023-05-07T11:20:57;26.09;56.20
7942;HTU21D;4016;50.758;7.150;2023-05-07T11:26:06;25.94;51.78
7942;HTU21D;4016;50.758;7.150;2023-05-07T11:31:07;26.07;54.84
7942;HTU21D;4016;50.758;7.150;2023-05-07T11:36:08;26.31;50.82
7942;HTU21D;4016;50.758;7.150;2023-05-07T11:41:08;26.17;50.52
7942;HTU21D;4016;50.758;7.150;2023-05-07T11:46:10;26.62;52.68
7942;HTU21D;4016;50.758;7.150;2023-05-07T11:51:11;26.67;48.21
7942;HTU21D;4016;50.758;7.150;2023-05-07T11:56:15;26.35;48.57
7942;HTU21D;4016;50.758;7.150;2023-05-07T12:01:15;26.18;51.53
7942;HTU21D;4016;50.758;7.150;2023-05-07T12:06:17;25.98;54.66
7942;HTU21D;4016;50.758;7.150;2023-05-07T12:11:24;25.64;54.28
7942;HTU21D;4016;50.758;7.150;2023-05-07T12:16:25;25.40;54.02
7942;HTU21D;4016;50.758;7.150;2023-05-07T12:21:26;25.02;55.65
7942;HTU21D;4016;50.758;7.150;2023-05-07T12:26:26;25.00;56.16
7942;HTU21D;4016;50.758;7.150;2023-05-07T12:31:27;24.84;55.47
7942;HTU21D;4016;50.758;7.150;2023-05-07T12:36:39;24.55;56.81
7942;HTU21D;4016;50.758;7.150;2023-05-07T12:41:55;24.26;56.94
7942;HTU21D;4016;50.758;7.150;2023-05-07T12:46:56;23.94;70.39
7942;HTU21D;4016;50.758;7.150;2023-05-07T12:51:57;23.38;88.55
7942;HTU21D;4016;50.758;7.150;2023-05-07T12:57:08;22.90;95.88
7942;HTU21D;4016;50.758;7.150;2023-05-07T13:02:09;22.63;102.52
7942;HTU21D;4016;50.758;7.150;2023-05-07T13:07:09;22.31;103.86
7942;HTU21D;4016;50.758;7.150;2023-05-07T13:12:09;22.09;106.21
7942;HTU21D;4016;50.758;7.150;2023-05-07T13:17:10;21.97;108.21
7942;HTU21D;4016;50.758;7.150;2023-05-07T13:22:10;21.88;105.70
7942;HTU21D;4016;50.758;7.150;2023-05-07T13:27:11;21.72;105.73
7942;HTU21D;4016;50.758;7.150;2023-05-07T13:32:11;21.55;106.80
7942;HTU21D;4016;50.758;7.150;2023-05-07T13:37:11;21.50;106.86
7942;HTU21D;4016;50.758;7.150;2023-05-07T13:42:12;21.61;105.93
7942;HTU21D;4016;50.758;7.150;2023-05-07T13:47:12;21.70;103.64
7942;HTU21D;4016;50.758;7.150;2023-05-07T13:52:13;21.83;98.86
7942;HTU21D;4016;50.758;7.150;2023-05-07T13:57:13;21.99;101.35
7942;HTU21D;4016;50.758;7.150;2023-05-07T14:02:13;22.04;104.87
7942;HTU21D;4016;50.758;7.150;2023-05-07T14:07:14;22.01;107.04
7942;HTU21D;4016;50.758;7.150;2023-05-07T14:12:15;22.04;105.05
7942;HTU21D;4016;50.758;7.150;2023-05-07T14:17:19;22.17;102.05
7942;HTU21D;4016;50.758;7.150;2023-05-07T14:22:23;21.79;103.94
7942;HTU21D;4016;50.758;7.150;2023-05-07T14:27:23;21.46;107.04
7942;HTU21D;4016;50.758;7.150;2023-05-07T14:32:24;21.40;108.72
7942;HTU21D;4016;50.758;7.150;2023-05-07T14:37:24;21.13;109.22
7942;HTU21D;4016;50.758;7.150;2023-05-07T14:42:25;21.04;110.29
7942;HTU21D;4016;50.758;7.150;2023-05-07T14:47:25;21.01;108.15
7942;HTU21D;4016;50.758;7.150;2023-05-07T14:52:26;20.91;113.74
7942;HTU21D;4016;50.758;7.150;2023-05-07T14:57:26;20.88;114.29
7942;HTU21D;4016;50.758;7.150;2023-05-07T15:02:27;20.98;111.34
7942;HTU21D;4016;50.758;7.150;2023-05-07T15:07:27;20.76;112.22
7942;HTU21D;4016;50.758;7.150;2023-05-07T15:12:28;20.80;108.52
7942;HTU21D;4016;50.758;7.150;2023-05-07T15:17:28;20.43;108.80
7942;HTU21D;4016;50.758;7.150;2023-05-07T15:22:29;20.19;111.58
7942;HTU21D;4016;50.758;7.150;2023-05-07T15:27:30;19.89;116.80
7942;HTU21D;4016;50.758;7.150;2023-05-07T15:32:31;19.63;118.99
7942;HTU21D;4016;50.758;7.150;2023-05-07T15:37:31;19.62;118.99
7942;HTU21D;4016;50.758;7.150;2023-05-07T15:42:32;19.27;118.99
7942;HTU21D;4016;50.758;7.150;2023-05-07T15:47:34;19.07;118.99
7942;HTU21D;4016;50.758;7.150;2023-05-07T15:52:35;18.96;118.99
7942;HTU21D;4016;50.758;7.150;2023-05-07T15:57:36;18.86;118.99
7942;HTU21D;4016;50.758;7.150;2023-05-07T16:02:36;18.92;118.99
7942;HTU21D;4016;50.758;7.150;2023-05-07T16:07:36;18.94;118.99
7942;HTU21D;4016;50.758;7.150;2023-05-07T16:12:37;18.94;118.99
7942;HTU21D;4016;50.758;7.150;2023-05-07T16:17:37;18.83;118.99
7942;HTU21D;4016;50.758;7.150;2023-05-07T16:22:38;18.83;118.99
7942;HTU21D;4016;50.758;7.150;2023-05-07T16:27:39;18.68;118.99
7942;HTU21D;4016;50.758;7.150;2023-05-07T16:32:39;18.74;118.99
7942;HTU21D;4016;50.758;7.150;2023-05-07T16:37:40;18.67;118.99
7942;HTU21D;4016;50.758;7.150;2023-05-07T16:42:40;18.47;118.99
7942;HTU21D;4016;50.758;7.150;2023-05-07T16:47:41;18.35;118.99
7942;HTU21D;4016;50.758;7.150;2023-05-07T16:52:41;18.27;118.99
7942;HTU21D;4016;50.758;7.150;2023-05-07T16:57:41;18.24;118.99
7942;HTU21D;4016;50.758;7.150;2023-05-07T17:02:42;18.13;118.99
7942;HTU21D;4016;50.758;7.150;2023-05-07T17:07:42;18.08;118.99
7942;HTU21D;4016;50.758;7.150;2023-05-07T17:12:43;18.08;118.99
7942;HTU21D;4016;50.758;7.150;2023-05-07T17:17:43;17.92;118.99
7942;HTU21D;4016;50.758;7.150;2023-05-07T17:22:44;17.85;118.99
7942;HTU21D;4016;50.758;7.150;2023-05-07T17:27:44;17.80;118.99
7942;HTU21D;4016;50.758;7.150;2023-05-07T17:32:44;17.78;118.99
7942;HTU21D;4016;50.758;7.150;2023-05-07T17:37:45;17.74;118.99
7942;HTU21D;4016;50.758;7.150;2023-05-07T17:42:51;17.67;118.99
7942;HTU21D;4016;50.758;7.150;2023-05-07T17:47:51;17.67;118.99
7942;HTU21D;4016;50.758;7.150;2023-05-07T17:52:52;17.51;118.99
7942;HTU21D;4016;50.758;7.150;2023-05-07T17:57:52;17.40;118.99
7942;HTU21D;4016;50.758;7.150;2023-05-07T18:02:53;17.33;118.99
7942;HTU21D;4016;50.758;7.150;2023-05-07T18:07:54;17.28;118.99
7942;HTU21D;4016;50.758;7.150;2023-05-07T18:12:55;17.22;118.99
7942;HTU21D;4016;50.758;7.150;2023-05-07T18:17:55;17.16;118.99
7942;HTU21D;4016;50.758;7.150;2023-05-07T18:22:57;17.07;118.99
7942;HTU21D;4016;50.758;7.150;2023-05-07T18:27:57;17.00;118.99
7942;HTU21D;4016;50.758;7.150;2023-05-07T18:32:57;16.94;118.99
7942;HTU21D;4016;50.758;7.150;2023-05-07T18:37:58;16.96;118.99
7942;HTU21D;4016;50.758;7.150;2023-05-07T18:42:58;16.91;118.99
7942;HTU21D;4016;50.758;7.150;2023-05-07T18:48:05;16.90;118.99
7942;HTU21D;4016;50.758;7.150;2023-05-07T18:53:06;16.87;118.99
7942;HTU21D;4016;50.758;7.150;2023-05-07T18:58:06;16.91;118.99
7942;HTU21D;4016;50.758;7.150;2023-05-07T19:03:06;16.72;118.99
7942;HTU21D;4016;50.758;7.150;2023-05-07T19:08:07;16.59;118.99
7942;HTU21D;4016;50.758;7.150;2023-05-07T19:13:07;16.65;118.99
7942;HTU21D;4016;50.758;7.150;2023-05-07T19:18:07;16.41;118.99
7942;HTU21D;4016;50.758;7.150;2023-05-07T19:23:08;16.35;118.99
7942;HTU21D;4016;50.758;7.150;2023-05-07T19:28:10;16.29;118.99
7942;HTU21D;4016;50.758;7.150;2023-05-07T19:33:11;16.26;118.99
7942;HTU21D;4016;50.758;7.150;2023-05-07T19:38:11;16.25;118.99
7942;HTU21D;4016;50.758;7.150;2023-05-07T19:43:11;16.25;118.99
7942;HTU21D;4016;50.758;7.150;2023-05-07T19:48:13;16.19;118.99
7942;HTU21D;4016;50.758;7.150;2023-05-07T19:53:14;16.17;118.99
7942;HTU21D;4016;50.758;7.150;2023-05-07T19:58:14;16.12;118.99
7942;HTU21D;4016;50.758;7.150;2023-05-07T20:03:15;16.11;118.99
7942;HTU21D;4016;50.758;7.150;2023-05-07T20:08:17;16.11;118.99
7942;HTU21D;4016;50.758;7.150;2023-05-07T20:13:18;16.06;118.99
7942;HTU21D;4016;50.758;7.150;2023-05-07T20:18:18;16.05;118.99
7942;HTU21D;4016;50.758;7.150;2023-05-07T20:23:19;16.06;118.99
7942;HTU21D;4016;50.758;7.150;2023-05-07T20:28:19;16.10;118.99
7942;HTU21D;4016;50.758;7.150;2023-05-07T20:33:20;16.07;118.99
7942;HTU21D;4016;50.758;7.150;2023-05-07T20:38:20;16.01;118.99
7942;HTU21D;4016;50.758;7.150;2023-05-07T20:43:20;15.99;118.99
7942;HTU21D;4016;50.758;7.150;2023-05-07T20:48:21;16.05;118.99
7942;HTU21D;4016;50.758;7.150;2023-05-07T20:53:21;16.01;118.99
7942;HTU21D;4016;50.758;7.150;2023-05-07T20:58:22;15.91;118.99
7942;HTU21D;4016;50.758;7.150;2023-05-07T21:03:26;15.84;118.99
7942;HTU21D;4016;50.758;7.150;2023-05-07T21:08:26;15.83;118.99
7942;HTU21D;4016;50.758;7.150;2023-05-07T21:13:27;15.75;118.99
7942;HTU21D;4016;50.758;7.150;2023-05-07T21:18:27;15.75;118.99
7942;HTU21D;4016;50.758;7.150;2023-05-07T21:23:29;15.60;118.99
7942;HTU21D;4016;50.758;7.150;2023-05-07T21:28:30;15.55;118.99
7942;HTU21D;4016;50.758;7.150;2023-05-07T21:33:30;15.49;118.99
7942;HTU21D;4016;50.758;7.150;2023-05-07T21:38:31;15.44;118.99
7942;HTU21D;4016;50.758;7.150;2023-05-07T21:43:31;15.44;118.99
7942;HTU21D;4016;50.758;7.150;2023-05-07T21:48:32;15.39;118.99
7942;HTU21D;4016;50.758;7.150;2023-05-07T21:53:33;15.39;118.99
7942;HTU21D;4016;50.758;7.150;2023-05-07T21:58:33;15.31;118.99
7942;HTU21D;4016;50.758;7.150;2023-05-07T22:03:34;15.30;118.99
7942;HTU21D;4016;50.758;7.150;2023-05-07T22:08:34;15.37;118.99
7942;HTU21D;4016;50.758;7.150;2023-05-07T22:13:35;15.31;118.99
7942;HTU21D;4016;50.758;7.150;2023-05-07T22:18:35;15.26;118.99
7942;HTU21D;4016;50.758;7.150;2023-05-07T22:23:36;15.22;118.99
7942;HTU21D;4016;50.758;7.150;2023-05-07T22:28:36;15.16;118.99
7942;HTU21D;4016;50.758;7.150;2023-05-07T22:33:36;15.14;118.99
7942;HTU21D;4016;50.758;7.150;2023-05-07T22:38:37;15.11;118.99
7942;HTU21D;4016;50.758;7.150;2023-05-07T22:43:37;15.11;118.99
7942;HTU21D;4016;50.758;7.150;2023-05-07T22:48:38;15.11;118.99
7942;HTU21D;4016;50.758;7.150;2023-05-07T22:53:39;15.10;118.99
7942;HTU21D;4016;50.758;7.150;2023-05-07T22:58:39;15.10;118.99
7942;HTU21D;4016;50.758;7.150;2023-05-07T23:03:39;15.11;118.99
7942;HTU21D;4016;50.758;7.150;2023-05-07T23:08:40;15.06;118.99
7942;HTU21D;4016;50.758;7.150;2023-05-07T23:13:40;15.00;118.99
7942;HTU21D;4016;50.758;7.150;2023-05-07T23:18:41;14.99;118.99
7942;HTU21D;4016;50.758;7.150;2023-05-07T23:23:41;14.99;118.99
7942;HTU21D;4016;50.758;7.150;2023-05-07T23:28:42;15.00;118.99
7942;HTU21D;4016;50.758;7.150;2023-05-07T23:33:42;14.96;118.99
7942;HTU21D;4016;50.758;7.150;2023-05-07T23:38:43;14.97;118.99
7942;HTU21D;4016;50.758;7.150;2023-05-07T23:43:43;15.02;118.99
7942;HTU21D;4016;50.758;7.150;2023-05-07T23:48:43;15.01;118.99
7942;HTU21D;4016;50.758;7.150;2023-05-07T23:53:44;15.04;118.99
7942;HTU21D;4016;50.758;7.150;2023-05-07T23:58:45;15.03;118.99
